Time;durP1;ratioP1;P1;durP2;ratioP2;P2;SDS_P1;SDS_P2;PMS_P1;PMS_P2;Temp;Humidity;BMP_temperature;BMP_pressure;BME280_temperature;BME280_humidity;BME280_pressure;Samples;Min_cycle;Max_cycle;Signal;HPM_P1;HPM_P2
2022/12/11 22:06:23;;;;;;;42.73;19.00;;;-1.00;99.90;;;;;;6209583;22;20457;-40
2022/12/11 22:08:49;;;;;;;43.00;20.03;;;-1.00;99.90;;;;;;6213682;23;20382;-40
2022/12/11 22:11:21;;;;;;;39.60;19.23;;;-1.00;99.90;;;;;;6213138;23;20197;-40
2022/12/11 22:13:46;;;;;;;42.70;19.33;;;-1.00;99.90;;;;;;6213137;23;20863;-40
2022/12/11 22:16:12;;;;;;;39.23;18.40;;;-1.10;99.90;;;;;;6213672;23;20536;-40
2022/12/11 22:18:38;;;;;;;42.40;19.17;;;-1.00;99.90;;;;;;6213110;23;20154;-39
2022/12/11 22:21:03;;;;;;;42.00;20.33;;;-1.00;99.90;;;;;;6213384;23;20158;-40
2022/12/11 22:23:29;;;;;;;41.30;19.30;;;-1.00;99.90;;;;;;6212792;23;20154;-40
2022/12/11 22:25:56;;;;;;;43.83;20.33;;;-1.00;99.90;;;;;;6212655;23;20147;-39
2022/12/11 22:28:21;;;;;;;48.63;19.60;;;-1.00;99.90;;;;;;6213247;23;20478;-40
2022/12/11 22:30:47;;;;;;;41.63;19.90;;;-0.90;99.90;;;;;;6213019;23;20380;-40
2022/12/11 22:33:13;;;;;;;41.40;19.67;;;-0.90;99.90;;;;;;6213781;23;20587;-39
2022/12/11 22:35:39;;;;;;;47.03;21.77;;;-1.00;99.90;;;;;;6212392;23;20417;-40
2022/12/11 22:38:05;;;;;;;44.13;19.70;;;-1.00;99.90;;;;;;6212947;23;20146;-40
2022/12/11 22:40:31;;;;;;;47.27;21.03;;;-0.90;99.90;;;;;;6213307;23;20157;-39
2022/12/11 22:42:57;;;;;;;51.03;21.70;;;-0.90;99.90;;;;;;6213054;23;20811;-40
2022/12/11 22:45:23;;;;;;;43.40;20.10;;;-1.00;99.90;;;;;;6212866;23;20374;-39
2022/12/11 22:47:48;;;;;;;44.47;21.67;;;-0.90;99.90;;;;;;6213333;23;20377;-40
2022/12/11 22:50:15;;;;;;;50.47;22.00;;;-0.90;99.90;;;;;;6212523;23;20637;-40
2022/12/11 22:52:41;;;;;;;45.17;21.37;;;-0.90;99.90;;;;;;6213233;23;20146;-39
2022/12/11 22:55:07;;;;;;;50.63;22.43;;;-1.00;99.90;;;;;;6212661;23;20718;-39
2022/12/11 22:57:37;;;;;;;46.50;22.47;;;-1.00;99.90;;;;;;6213444;23;20378;-40
2022/12/11 23:00:08;;;;;;;46.87;20.93;;;-1.00;99.90;;;;;;6212627;23;20440;-39
2022/12/11 23:02:34;;;;;;;46.93;21.33;;;-1.00;99.90;;;;;;6212401;23;20421;-40
2022/12/11 23:05:00;;;;;;;48.73;21.90;;;-1.00;99.90;;;;;;6212436;23;20386;-39
2022/12/11 23:07:25;;;;;;;46.83;21.40;;;-1.00;99.90;;;;;;6213385;23;20143;-38
2022/12/11 23:09:51;;;;;;;42.93;21.20;;;-1.00;99.90;;;;;;6212714;23;20162;-40
2022/12/11 23:12:18;;;;;;;50.00;21.20;;;-1.10;99.90;;;;;;6212907;23;20218;-40
2022/12/11 23:14:43;;;;;;;50.63;23.03;;;-1.10;99.90;;;;;;6186410;23;20534;-40
2022/12/11 23:17:09;;;;;;;45.97;20.30;;;-1.10;99.90;;;;;;6212915;23;20427;-40
2022/12/11 23:19:35;;;;;;;40.07;19.87;;;-1.20;99.90;;;;;;6211413;23;20624;-40
2022/12/11 23:22:01;;;;;;;50.53;21.70;;;-1.20;99.90;;;;;;6213190;23;20861;-39
2022/12/11 23:24:27;;;;;;;42.50;21.17;;;-1.30;99.90;;;;;;6213081;23;20385;-39
2022/12/11 23:26:52;;;;;;;44.70;20.77;;;-1.30;99.90;;;;;;6212467;23;21020;-40
2022/12/11 23:29:18;;;;;;;43.37;21.93;;;-1.30;99.90;;;;;;6212293;23;20151;-39
2022/12/11 23:31:44;;;;;;;49.50;22.57;;;-1.40;99.90;;;;;;6212291;23;20146;-40
2022/12/11 23:34:09;;;;;;;49.23;22.37;;;-1.40;99.90;;;;;;6212761;23;20158;-39
2022/12/11 23:36:35;;;;;;;47.40;22.00;;;-1.40;99.90;;;;;;6212938;23;20216;-40
2022/12/11 23:39:00;;;;;;;49.63;21.63;;;-1.50;1.00;;;;;;6212611;23;20149;-40
2022/12/11 23:41:26;;;;;;;55.93;24.60;;;-1.40;1.00;;;;;;6212822;23;20796;-40
2022/12/11 23:43:52;;;;;;;48.63;21.43;;;-1.40;1.00;;;;;;6213388;23;20143;-40
2022/12/11 23:46:21;;;;;;;51.03;24.33;;;-1.30;1.00;;;;;;6212663;23;20603;-40
2022/12/11 23:48:47;;;;;;;54.10;25.17;;;-1.30;1.00;;;;;;6212746;23;20162;-39
2022/12/11 23:51:15;;;;;;;53.30;24.40;;;-1.30;1.00;;;;;;6212584;23;20407;-39
2022/12/11 23:53:42;;;;;;;47.47;22.30;;;-1.30;1.00;;;;;;6212878;23;20859;-45
2022/12/11 23:56:14;;;;;;;58.13;26.33;;;-1.30;1.00;;;;;;6212993;23;20429;-40
2022/12/11 23:58:40;;;;;;;50.63;23.27;;;-1.30;1.00;;;;;;6213107;23;20366;-40
